Flight Track Log - Related Links

Times and Time Zones

All times are in EDT time to prevent confusion due to time zone crossing. See the N328AJ flight status page for this flight to view local times or setup timezone preferences in your user account.

Time Position Orientation Groundspeed Altitude Reporting Facility
EDT Latitude Longitude Course Direction KTS MPH feet Rate Location/Type
Fri 05:38:22 PM 40.8333 -74.1167 252° West 178 205 1,400  Level New TRACON
Fri 05:39:22 PM 40.8167 -74.1833 252° West 194 223 3,200 1,905 Climbing New TRACON
Fri 05:40:28 PM 40.8167 -74.2500 270° West 192 221 5,400 2,095 Climbing New TRACON
Fri 05:41:28 PM 40.8167 -74.3167 270° West 191 220 7,600 2,150 Climbing New TRACON
Fri 05:42:28 PM 40.8167 -74.4000 270° West 194 223 9,700 1,750 Climbing New TRACON
Fri 05:43:28 PM 40.8167 -74.4667 270° West 217 250 11,100 1,250 Climbing New TRACON
Fri 05:44:28 PM 40.8167 -74.5500 270° West 240 276 12,200 1,021 Climbing New TRACON
Fri 05:45:49 PM 40.8117 -74.6753 267° West 237 273 13,500 766 Climbing New Center
Fri 05:46:49 PM 40.8108 -74.7658 269° West 237 273 14,000 248 Climbing New Center
Fri 05:47:50 PM 40.8094 -74.8644 269° West 264 304 14,000  Level New Center
Fri 05:48:50 PM 40.8061 -74.9572 267° West 275 316 14,000 559 Level New Center
Fri 05:49:48 PM 40.8044 -75.0642 269° West 270 311 15,100 1,059 Climbing New Center
Fri 05:50:49 PM 40.7989 -75.1542 265° West 258 297 16,100 984 Climbing New Center
Fri 05:51:50 PM 40.7875 -75.2383 260° West 253 291 17,100 942 Climbing New Center
Fri 05:52:50 PM 40.7764 -75.3144 259° West 240 276 18,000 958 Climbing New Center
Fri 05:53:49 PM 40.7628 -75.3958 258° West 235 270 19,000 958 Climbing New Center
Fri 05:54:49 PM 40.7347 -75.4706 244° Southwest 230 265 19,900 950 Climbing New Center
Fri 05:55:49 PM 40.7089 -75.5428 245° Southwest 230 265 20,900 1,000 Climbing New Center
Fri 05:56:49 PM 40.6789 -75.6172 242° Southwest 230 265 21,900 984 Climbing New Center
Fri 05:57:51 PM 40.6508 -75.6892 243° Southwest 230 265 22,900 756 Climbing New Center
Fri 05:58:48 PM 40.6247 -75.7639 245° Southwest 230 265 23,400 504 Climbing New Center
Fri 05:59:50 PM 40.5967 -75.8383 244° Southwest 230 265 23,900 293 Climbing New Center
Fri 06:00:51 PM 40.5597 -75.9231 240° Southwest 246 283 24,000 51 Climbing New Center
Fri 06:01:48 PM 40.5267 -76.0106 244° Southwest 259 298 24,000  Level New Center
Fri 06:02:49 PM 40.4933 -76.1008 244° Southwest 269 310 24,000  Level New Center
Fri 06:03:48 PM 40.4581 -76.1911 243° Southwest 274 315 24,000  Level New Center
Fri 06:04:49 PM 40.4225 -76.2836 243° Southwest 274 315 24,000  Level New Center
Fri 06:05:48 PM 40.3892 -76.3708 243° Southwest 274 315 24,000  Level New Center
Fri 06:06:49 PM 40.3597 -76.4639 247° West 274 315 24,000  Level New Center
Fri 06:07:49 PM 40.3528 -76.5642 265° West 274 315 24,000  Level New Center
Fri 06:08:50 PM 40.3458 -76.6617 265° West 274 315 24,000  Level New Center
Fri 06:09:50 PM 40.3389 -76.7592 265° West 274 315 24,000  Level New Center
Fri 06:10:48 PM 40.3339 -76.8567 266° West 274 315 24,000  Level New Center
Fri 06:11:48 PM 40.3267 -76.9542 264° West 274 315 24,000  Level New Center
Fri 06:12:49 PM 40.3339 -77.0528 276° West 274 315 24,000  Level New Center
Fri 06:13:49 PM 40.3456 -77.1492 279° West 274 315 24,000  Level New Center
Fri 06:14:50 PM 40.3569 -77.2456 279° West 274 315 24,000  Level New Center
Fri 06:15:49 PM 40.3683 -77.3419 279° West 274 315 24,000  Level New Center
Fri 06:17:21 PM 40.3539 -77.4981 263° West 270 311 24,000  Level Cleveland Center
Fri 06:18:23 PM 40.3428 -77.5958 262° West 272 313 24,000  Level Cleveland Center
Fri 06:19:25 PM 40.3319 -77.6936 262° West 272 313 24,000  Level Cleveland Center
Fri 06:20:27 PM 40.3217 -77.7911 262° West 272 313 24,000  Level Cleveland Center
Fri 06:21:29 PM 40.3075 -77.9083 261° West 273 314 24,000  Level Cleveland Center
Fri 06:22:31 PM 40.2975 -78.0050 262° West 271 312 24,000  Level Cleveland Center
Fri 06:23:34 PM 40.2875 -78.1017 262° West 269 310 24,000  Level Cleveland Center
Fri 06:24:36 PM 40.2764 -78.1981 261° West 269 310 24,000  Level Cleveland Center
Fri 06:25:38 PM 40.2647 -78.2947 261° West 270 311 24,000  Level Cleveland Center
Fri 06:26:40 PM 40.2519 -78.4081 262° West 267 307 24,000  Level Cleveland Center
Fri 06:27:42 PM 40.2406 -78.5033 261° West 266 306 24,000  Level Cleveland Center
Fri 06:28:44 PM 40.2297 -78.5986 262° West 267 307 24,000  Level Cleveland Center
Fri 06:29:46 PM 40.2186 -78.6922 261° West 263 303 24,000  Level Cleveland Center
Fri 06:30:48 PM 40.2072 -78.7883 261° West 267 307 24,000  Level Cleveland Center
Fri 06:31:50 PM 40.1933 -78.9033 261° West 268 308 24,000  Level Cleveland Center
Fri 06:32:52 PM 40.1817 -78.9992 261° West 268 308 24,000  Level Cleveland Center
Fri 06:33:54 PM 40.1706 -79.0922 261° West 264 304 24,000  Level Cleveland Center
Fri 06:34:56 PM 40.1589 -79.1864 261° West 264 304 24,000  Level Cleveland Center
Fri 06:35:58 PM 40.1481 -79.2789 261° West 260 299 24,000  Level Cleveland Center
Fri 06:37:00 PM 40.1364 -79.3769 261° West 265 305 24,000  Level Cleveland Center
Fri 06:38:03 PM 40.1247 -79.4703 261° West 264 304 24,000  Level Cleveland Center
Fri 06:39:05 PM 40.1103 -79.5853 261° West 266 306 24,000  Level Cleveland Center
Fri 06:40:07 PM 40.0986 -79.6789 261° West 263 303 24,000  Level Cleveland Center
Fri 06:41:09 PM 40.0861 -79.7739 260° West 264 304 24,000  Level Cleveland Center
Fri 06:42:11 PM 40.0736 -79.8689 260° West 265 305 24,000  Level Cleveland Center
Fri 06:43:13 PM 40.0617 -79.9642 261° West 264 304 24,000  Level Cleveland Center
Fri 06:44:15 PM 40.0497 -80.0594 261° West 265 305 24,000  Level Cleveland Center
Fri 06:45:17 PM 40.0372 -80.1539 260° West 265 305 24,000  Level Cleveland Center
Fri 06:46:19 PM 40.0214 -80.2678 260° West 266 306 24,000  Level Cleveland Center
Fri 06:47:21 PM 40.0094 -80.3631 261° West 266 306 24,000 -48 Level Cleveland Center
Fri 06:48:23 PM 39.9961 -80.4578 260° West 266 306 23,900 -339 Descending Cleveland Center
Fri 06:49:25 PM 39.9825 -80.5550 260° West 273 314 23,300 -581 Descending Cleveland Center
Fri 06:50:27 PM 39.9689 -80.6567 260° West 285 328 22,700 -581 Descending Cleveland Center
Fri 06:51:29 PM 39.9550 -80.7592 260° West 287 330 22,100 -336 Descending Cleveland Center
Fri 06:52:32 PM 39.9372 -80.8783 259° West 280 322 22,000 -48 Descending Cleveland Center
Fri 06:53:34 PM 39.9242 -80.9750 260° West 274 315 22,000  Level Cleveland Center
Fri 06:54:32 PM 39.9114 -81.0647 260° West 274 315 22,000  Level Indianapolis Center
Fri 06:55:34 PM 39.8983 -81.1592 260° West 269 310 22,000 -532 Level Indianapolis Center
Fri 06:56:36 PM 39.8836 -81.2600 259° West 276 318 20,900 -1,113 Descending Indianapolis Center
Fri 06:57:38 PM 39.8675 -81.3700 259° West 296 341 19,700 -1,258 Descending Indianapolis Center
Fri 06:58:40 PM 39.8483 -81.5067 260° West 313 360 18,300 -1,161 Descending Indianapolis Center
Fri 06:59:42 PM 39.8322 -81.6181 259° West 315 362 17,300 -1,065 Descending Indianapolis Center
Fri 07:00:44 PM 39.8164 -81.7250 259° West 307 353 16,100 -1,220 Descending Indianapolis Center
Fri 07:01:45 PM 39.8022 -81.8253 260° West 290 334 14,800 -1,317 Descending Indianapolis Center
Fri 07:02:47 PM 39.7861 -81.9256 258° West 284 327 13,400 -1,455 Descending Indianapolis Center
Fri 07:02:51 PM 39.7828 -81.9472 259° West 281 323 13,200 -1,355 Descending Indianapolis Center
Fri 07:03:49 PM 39.7725 -82.0239 260° West 280 322 12,000 -1,433 Descending Indianapolis Center
Fri 07:03:58 PM 39.7733 -82.0544 272° West 279 321 11,600 -1,629 Descending Indianapolis Center
Fri 07:04:59 PM 39.7747 -82.1581 271° West 291 335 10,100 -887 Descending Indianapolis Center
Fri 07:05:53 PM 39.7761 -82.2464 271° West 279 321 9,900 -626 Descending Indianapolis Center
Fri 07:06:54 PM 39.7889 -82.3419 280° West 285 328 8,900 -968 Descending Indianapolis Center
Fri 07:06:55 PM 39.7911 -82.3508 288° West 275 316 8,900 -1,180 Level Indianapolis Center
Fri 07:07:55 PM 39.8231 -82.4403 295° West 271 312 7,700 -1,082 Descending Indianapolis Center
Fri 07:07:56 PM 39.8189 -82.4303 118° Southeast 268 308 7,800 -1,143 Climbing Indianapolis Center
Fri 07:08:58 PM 39.8519 -82.5197 296° West 272 313 6,500 -942 Descending Indianapolis Center
Fri 07:09:57 PM 39.8853 -82.6078 296° West 252 290 5,900 -484 Descending Indianapolis Center
Fri 07:10:00 PM 39.8836 -82.6014 109° East 262 302 6,000 98 Climbing Indianapolis Center
Fri 07:10:58 PM 39.8931 -82.6853 278° West 202 232 6,000  Level Indianapolis Center
Fri 07:11:01 PM 39.8944 -82.6775 77° East 215 247 6,000 -900 Level Indianapolis Center
Fri 07:11:58 PM 39.9069 -82.7611 281° West 216 249 5,100 -968 Descending Indianapolis Center
Fri 07:12:03 PM 39.9075 -82.7667 277° West 213 245 5,000 -1,180 Descending Indianapolis Center
Fri 07:12:59 PM 39.9350 -82.8419 295° West 237 273 3,900 -871 Descending Indianapolis Center
Fri 07:13:05 PM 39.9319 -82.8264 104° East 227 261 4,100 -882 Climbing Indianapolis Center
Fri 07:14:07 PM 39.9458 -82.9211 281° West 226 260 2,900 -976 Descending Indianapolis Center
Fri 07:15:08 PM 39.9664 -82.9669 300° West 191 220 2,100 -683 Descending Indianapolis Center
Fri 07:16:10 PM 39.9947 -82.9397 36° Northeast 156 180 1,500 -387 Descending Indianapolis Center
Fri 07:17:12 PM 40.0058 -82.8969 71° East 150 173 1,300 -194 Descending Indianapolis Center

Login

Don't have an account? Register now (free) for customized features, flight alerts, and more!